createdAt,value
2018-06-10T00:01:27.482Z,85.00
2018-06-10T00:03:54.818Z,84.00
2018-06-10T00:06:22.123Z,84.30
2018-06-10T00:08:49.491Z,84.10
2018-06-10T00:11:16.863Z,84.60
2018-06-10T00:13:44.350Z,84.10
2018-06-10T00:16:11.806Z,84.00
2018-06-10T00:18:39.094Z,83.50
2018-06-10T00:21:06.366Z,84.30
2018-06-10T00:23:34.100Z,84.20
2018-06-10T00:26:01.726Z,84.00
2018-06-10T00:28:34.583Z,84.00
2018-06-10T00:31:02.217Z,84.10
2018-06-10T00:33:29.507Z,84.30
2018-06-10T00:35:56.836Z,84.20
2018-06-10T00:38:24.103Z,84.80
2018-06-10T00:40:51.437Z,84.10
2018-06-10T00:43:18.783Z,84.00
2018-06-10T00:45:46.125Z,84.00
2018-06-10T00:48:13.433Z,85.10
2018-06-10T00:50:40.733Z,86.20
2018-06-10T00:53:08.085Z,85.40
2018-06-10T00:55:37.249Z,85.50
2018-06-10T00:58:05.848Z,85.60
2018-06-10T01:00:33.340Z,86.40
2018-06-10T01:03:04.033Z,86.10
2018-06-10T01:05:31.468Z,85.40
2018-06-10T01:07:58.796Z,85.80
2018-06-10T01:10:26.132Z,86.30
2018-06-10T01:12:53.478Z,85.80
2018-06-10T01:15:20.816Z,86.20
2018-06-10T01:17:48.153Z,85.90
2018-06-10T01:20:15.439Z,86.10
2018-06-10T01:22:42.770Z,86.50
2018-06-10T01:25:10.059Z,86.00
2018-06-10T01:27:37.337Z,87.30
2018-06-10T01:30:04.643Z,86.00
2018-06-10T01:32:32.126Z,86.30
2018-06-10T01:34:59.391Z,86.80
2018-06-10T01:37:26.762Z,87.10
2018-06-10T01:39:54.185Z,86.20
2018-06-10T01:42:21.520Z,87.00
2018-06-10T01:44:48.804Z,87.00
2018-06-10T01:47:16.809Z,87.60
2018-06-10T01:49:44.362Z,87.20
2018-06-10T01:52:11.733Z,87.40
2018-06-10T01:54:39.068Z,87.10
2018-06-10T01:57:06.333Z,87.10
2018-06-10T01:59:33.653Z,87.40
2018-06-10T02:02:00.928Z,87.10
2018-06-10T02:04:28.210Z,87.30
2018-06-10T02:06:55.527Z,87.40
2018-06-10T02:09:22.785Z,87.70
2018-06-10T02:11:50.439Z,87.50
2018-06-10T02:14:17.824Z,87.70
2018-06-10T02:16:45.151Z,88.00
2018-06-10T02:19:12.494Z,88.50
2018-06-10T02:21:39.776Z,88.50
2018-06-10T02:24:07.147Z,88.80
2018-06-10T02:26:34.407Z,88.90
2018-06-10T02:29:01.699Z,89.10
2018-06-10T02:31:28.953Z,89.00
2018-06-10T02:33:56.216Z,88.60
2018-06-10T02:36:24.088Z,88.60
2018-06-10T02:38:51.422Z,88.50
2018-06-10T02:41:18.963Z,88.50
2018-06-10T02:43:46.290Z,88.70
2018-06-10T02:46:13.558Z,89.00
2018-06-10T02:48:41.156Z,89.20
2018-06-10T02:51:10.896Z,89.40
2018-06-10T02:53:39.378Z,89.40
2018-06-10T02:56:07.648Z,89.60
2018-06-10T02:58:42.405Z,89.50
2018-06-10T03:01:12.299Z,89.50
2018-06-10T03:03:44.483Z,89.50
2018-06-10T03:06:15.344Z,89.60
2018-06-10T03:11:12.238Z,89.70
2018-06-10T03:13:39.563Z,89.50
2018-06-10T03:16:07.067Z,89.40
2018-06-10T03:18:34.515Z,89.60
2018-06-10T03:21:01.870Z,89.90
2018-06-10T03:23:29.132Z,89.90
2018-06-10T03:25:56.450Z,90.00
2018-06-10T03:28:23.761Z,90.00
2018-06-10T03:30:51.095Z,90.00
2018-06-10T03:33:18.381Z,89.70
2018-06-10T03:35:45.731Z,89.40
2018-06-10T03:38:13.010Z,89.20
2018-06-10T03:40:40.329Z,88.70
2018-06-10T03:43:07.577Z,88.90
2018-06-10T03:45:34.899Z,88.40
2018-06-10T03:48:02.203Z,88.20
2018-06-10T03:50:29.482Z,88.10
2018-06-10T03:55:24.125Z,88.00
2018-06-10T03:57:51.416Z,88.40
2018-06-10T04:00:18.767Z,88.40
2018-06-10T04:02:46.070Z,88.20
2018-06-10T04:05:13.398Z,88.00
2018-06-10T04:07:40.699Z,88.00
2018-06-10T04:10:08.022Z,87.80
2018-06-10T04:12:35.390Z,87.90
2018-06-10T04:15:02.756Z,88.10
2018-06-10T04:17:30.094Z,88.20
2018-06-10T04:19:57.499Z,88.20
2018-06-10T04:22:24.900Z,88.30
2018-06-10T04:24:52.160Z,88.20
2018-06-10T04:29:47.604Z,88.50
2018-06-10T04:32:15.374Z,88.50
2018-06-10T04:34:42.763Z,88.50
2018-06-10T04:37:10.104Z,88.50
2018-06-10T04:39:37.431Z,88.50
2018-06-10T04:42:05.411Z,88.20
2018-06-10T04:44:32.946Z,88.00
2018-06-10T04:47:00.303Z,87.90
2018-06-10T04:51:55.201Z,87.30
2018-06-10T04:56:49.915Z,87.30
2018-06-10T04:59:17.365Z,86.50
2018-06-10T05:01:44.614Z,86.60
2018-06-10T05:04:11.925Z,86.50
2018-06-10T05:06:39.506Z,86.80
2018-06-10T05:09:06.846Z,87.00
2018-06-10T05:11:34.164Z,86.40
2018-06-10T05:14:01.457Z,86.60
2018-06-10T05:16:28.785Z,86.50
2018-06-10T05:18:56.095Z,85.50
2018-06-10T05:21:23.499Z,85.60
2018-06-10T05:23:50.987Z,84.40
2018-06-10T05:26:19.471Z,84.60
2018-06-10T05:28:46.768Z,84.00
2018-06-10T05:31:14.059Z,83.80
2018-06-10T05:33:41.558Z,83.90
2018-06-10T05:36:09.118Z,84.00
2018-06-10T05:38:36.451Z,83.00
2018-06-10T05:41:03.705Z,83.30
2018-06-10T05:43:31.019Z,83.20
2018-06-10T05:45:58.303Z,82.80
2018-06-10T05:48:25.740Z,82.60
2018-06-10T05:50:53.056Z,82.00
2018-06-10T05:53:20.474Z,82.50
2018-06-10T05:55:47.866Z,83.10
2018-06-10T05:58:15.241Z,81.40
2018-06-10T06:00:42.504Z,81.00
2018-06-10T06:03:09.864Z,80.50
2018-06-10T06:05:37.304Z,80.60
2018-06-10T06:10:32.085Z,79.80
2018-06-10T06:12:59.732Z,79.60
2018-06-10T06:15:27.158Z,78.70
2018-06-10T06:17:54.639Z,79.20
2018-06-10T06:20:21.927Z,78.40
2018-06-10T06:22:49.355Z,77.90
2018-06-10T06:25:16.864Z,78.40
2018-06-10T06:27:44.220Z,77.80
2018-06-10T06:30:11.864Z,77.50
2018-06-10T06:32:39.221Z,77.20
2018-06-10T06:35:06.720Z,76.90
2018-06-10T06:37:34.115Z,77.30
2018-06-10T06:40:01.514Z,76.40
2018-06-10T06:44:56.196Z,75.60
2018-06-10T06:47:24.066Z,75.90
2018-06-10T06:49:51.354Z,75.30
2018-06-10T06:52:18.710Z,75.50
2018-06-10T06:54:46.122Z,75.20
2018-06-10T06:57:13.553Z,75.30
2018-06-10T06:59:40.857Z,74.60
2018-06-10T07:02:08.219Z,74.00
2018-06-10T07:04:36.367Z,75.50
2018-06-10T07:07:04.820Z,74.20
2018-06-10T07:09:32.166Z,74.00
2018-06-10T07:11:59.684Z,74.10
2018-06-10T07:14:26.914Z,73.60
2018-06-10T07:16:54.229Z,73.20
2018-06-10T07:19:21.498Z,72.40
2018-06-10T07:21:48.872Z,72.70
2018-06-10T07:24:16.211Z,72.00
2018-06-10T07:26:43.562Z,71.70
2018-06-10T07:29:10.839Z,71.30
2018-06-10T07:31:38.139Z,71.10
2018-06-10T07:34:05.459Z,71.10
2018-06-10T07:36:32.873Z,71.10
2018-06-10T07:39:00.378Z,70.30
2018-06-10T07:41:28.059Z,69.70
2018-06-10T07:43:56.130Z,69.50
2018-06-10T07:46:23.622Z,69.30
2018-06-10T07:48:51.118Z,69.50
2018-06-10T07:51:18.523Z,69.60
2018-06-10T07:53:45.893Z,69.30
2018-06-10T07:56:13.407Z,67.60
2018-06-10T07:58:40.867Z,67.30
2018-06-10T08:01:08.251Z,67.10
2018-06-10T08:03:35.558Z,68.40
2018-06-10T08:06:15.466Z,69.00
2018-06-10T08:08:43.846Z,67.60
2018-06-10T08:11:13.500Z,68.20
2018-06-10T08:13:41.069Z,68.30
2018-06-10T08:18:35.945Z,68.20
2018-06-10T08:21:03.357Z,68.30
2018-06-10T08:26:01.547Z,67.80
2018-06-10T08:28:29.033Z,66.80
2018-06-10T08:30:56.553Z,66.40
2018-06-10T08:33:23.890Z,66.30
2018-06-10T08:35:51.192Z,65.10
2018-06-10T08:38:18.554Z,65.00
2018-06-10T08:40:45.864Z,64.80
2018-06-10T08:43:13.225Z,65.00
2018-06-10T08:45:40.582Z,65.10
2018-06-10T08:50:35.479Z,65.00
2018-06-10T08:53:02.744Z,64.90
2018-06-10T08:57:57.387Z,63.90
2018-06-10T09:00:24.844Z,63.50
2018-06-10T09:02:52.576Z,63.90
2018-06-10T09:05:19.864Z,62.70
2018-06-10T09:07:47.318Z,62.60
2018-06-10T09:10:14.692Z,62.60
2018-06-10T09:12:42.108Z,61.10
2018-06-10T09:15:09.472Z,61.20
2018-06-10T09:17:36.878Z,61.50
2018-06-10T09:20:04.381Z,61.00
2018-06-10T09:22:31.709Z,59.70
2018-06-10T09:24:59.185Z,59.60
2018-06-10T09:27:26.855Z,59.70
2018-06-10T09:29:54.258Z,59.50
2018-06-10T09:32:22.104Z,58.60
2018-06-10T09:35:00.748Z,57.60
2018-06-10T09:37:28.248Z,57.80
2018-06-10T09:39:55.569Z,57.80
2018-06-10T09:42:22.995Z,58.10
2018-06-10T09:44:50.399Z,57.40
2018-06-10T09:47:17.794Z,57.20
2018-06-10T09:49:45.207Z,56.70
2018-06-10T09:52:12.591Z,57.10
2018-06-10T09:54:40.171Z,56.70
2018-06-10T09:57:07.791Z,56.50
2018-06-10T09:59:35.225Z,56.60
2018-06-10T10:02:02.881Z,56.70
2018-06-10T10:04:31.234Z,56.70
2018-06-10T10:07:05.722Z,57.70
2018-06-10T10:09:33.257Z,57.40
2018-06-10T10:12:00.655Z,57.30
2018-06-10T10:14:28.911Z,55.50
2018-06-10T10:16:56.613Z,55.80
2018-06-10T10:19:24.039Z,55.90
2018-06-10T10:21:51.777Z,55.90
2018-06-10T10:24:20.262Z,55.40
2018-06-10T10:29:15.309Z,55.00
2018-06-10T10:34:10.649Z,55.00
2018-06-10T10:36:39.495Z,55.00
2018-06-10T10:39:07.376Z,55.00
2018-06-10T10:41:35.232Z,54.30
2018-06-10T10:44:03.889Z,54.20
2018-06-10T10:46:31.472Z,54.30
2018-06-10T10:49:01.634Z,54.00
2018-06-10T10:51:29.316Z,53.90
2018-06-10T10:53:56.750Z,53.50
2018-06-10T10:56:24.124Z,52.90
2018-06-10T10:58:52.111Z,52.80
2018-06-10T11:01:19.505Z,52.60
2018-06-10T11:03:46.930Z,52.10
2018-06-10T11:06:14.315Z,52.60
2018-06-10T11:11:09.367Z,50.00
2018-06-10T11:13:36.950Z,51.40
2018-06-10T11:16:04.547Z,52.40
2018-06-10T11:18:31.889Z,53.00
2018-06-10T11:20:59.311Z,52.60
2018-06-10T11:23:26.796Z,52.90
2018-06-10T11:25:55.509Z,52.90
2018-06-10T11:28:22.819Z,53.40
2018-06-10T11:30:50.221Z,52.30
2018-06-10T11:33:17.576Z,51.50
2018-06-10T11:35:45.200Z,50.90
2018-06-10T11:38:12.565Z,50.50
2018-06-10T11:40:40.117Z,49.40
2018-06-10T11:43:08.167Z,50.30
2018-06-10T11:45:35.560Z,51.40
2018-06-10T11:48:03.105Z,51.80
2018-06-10T11:50:30.654Z,52.50
2018-06-10T11:52:58.143Z,52.80
2018-06-10T11:55:25.555Z,53.00
2018-06-10T12:00:21.609Z,52.90
2018-06-10T12:02:49.180Z,53.60
2018-06-10T12:05:16.557Z,54.10
2018-06-10T12:07:43.871Z,55.50
2018-06-10T12:10:11.291Z,54.70
2018-06-10T12:12:38.803Z,56.40
2018-06-10T12:15:06.198Z,57.30
2018-06-10T12:17:33.530Z,58.40
2018-06-10T12:20:01.303Z,58.90
2018-06-10T12:22:28.648Z,57.80
2018-06-10T12:24:56.029Z,59.00
2018-06-10T12:27:23.746Z,59.30
2018-06-10T12:29:51.586Z,59.00
2018-06-10T12:32:19.649Z,58.60
2018-06-10T12:34:47.378Z,58.80
2018-06-10T12:37:15.361Z,58.40
2018-06-10T12:39:42.853Z,59.30
2018-06-10T12:42:10.349Z,61.30
2018-06-10T12:44:37.812Z,65.30
2018-06-10T12:47:05.420Z,67.60
2018-06-10T12:52:00.486Z,69.60
2018-06-10T12:54:28.081Z,70.30
2018-06-10T12:56:55.973Z,71.90
2018-06-10T12:59:23.454Z,72.00
2018-06-10T13:01:51.145Z,71.20
2018-06-10T13:04:18.823Z,69.30
2018-06-10T13:06:46.243Z,68.40
2018-06-10T13:09:18.196Z,69.30
2018-06-10T13:11:45.875Z,69.70
2018-06-10T13:14:13.317Z,70.40
2018-06-10T13:16:41.043Z,70.70
2018-06-10T13:19:08.581Z,71.40
2018-06-10T13:21:37.243Z,72.40
2018-06-10T13:24:04.903Z,72.80
2018-06-10T13:26:32.327Z,72.60
2018-06-10T13:29:00.121Z,72.70
2018-06-10T13:31:28.089Z,72.50
2018-06-10T13:33:55.537Z,71.10
2018-06-10T13:36:22.967Z,69.90
2018-06-10T13:38:51.046Z,64.80
2018-06-10T13:41:18.975Z,61.50
2018-06-10T13:43:46.487Z,59.10
2018-06-10T13:46:16.211Z,58.10
2018-06-10T13:48:44.663Z,56.10
2018-06-10T13:51:12.068Z,53.60
2018-06-10T13:53:39.566Z,51.40
2018-06-10T13:56:07.543Z,49.60
2018-06-10T13:58:35.352Z,49.40
2018-06-10T14:01:02.816Z,49.60
2018-06-10T14:03:30.770Z,48.40
2018-06-10T14:05:58.278Z,47.80
2018-06-10T14:08:25.686Z,46.30
2018-06-10T14:10:53.090Z,46.60
2018-06-10T14:13:20.887Z,47.20
2018-06-10T14:15:48.216Z,45.70
2018-06-10T14:18:16.134Z,45.30
2018-06-10T14:20:50.921Z,45.10
2018-06-10T14:23:18.869Z,45.10
2018-06-10T14:25:46.399Z,42.80
2018-06-10T14:28:13.976Z,43.20
2018-06-10T14:30:41.342Z,42.80
2018-06-10T14:33:08.596Z,42.20
2018-06-10T14:35:35.910Z,41.90
2018-06-10T14:38:04.254Z,42.30
2018-06-10T14:42:59.671Z,40.90
2018-06-10T14:45:27.066Z,40.20
2018-06-10T14:50:22.178Z,40.90
2018-06-10T14:52:49.666Z,39.50
2018-06-10T14:55:17.524Z,39.60
2018-06-10T14:57:47.477Z,39.60
2018-06-10T15:00:15.629Z,39.20
2018-06-10T15:02:43.153Z,39.70
2018-06-10T15:05:10.965Z,38.40
2018-06-10T15:07:38.419Z,39.00
2018-06-10T15:10:06.174Z,39.70
2018-06-10T15:12:34.246Z,38.90
2018-06-10T15:15:03.619Z,38.60
2018-06-10T15:17:31.364Z,38.70
2018-06-10T15:19:58.766Z,39.90
2018-06-10T15:22:26.248Z,39.20
2018-06-10T15:24:53.575Z,40.20
2018-06-10T15:27:21.548Z,41.40
2018-06-10T15:29:49.518Z,42.10
2018-06-10T15:32:17.287Z,43.10
2018-06-10T15:34:45.526Z,43.70
2018-06-10T15:37:13.685Z,44.00
2018-06-10T15:39:41.067Z,44.30
2018-06-10T15:42:08.889Z,44.50
2018-06-10T15:44:38.220Z,44.50
2018-06-10T15:47:07.346Z,43.90
2018-06-10T15:49:35.298Z,44.00
2018-06-10T15:52:02.652Z,43.90
2018-06-10T15:56:58.667Z,44.80
2018-06-10T15:59:26.224Z,46.10
2018-06-10T16:01:53.779Z,46.90
2018-06-10T16:04:22.511Z,47.30
2018-06-10T16:06:51.375Z,48.50
2018-06-10T16:09:18.867Z,48.20
2018-06-10T16:11:46.826Z,48.90
2018-06-10T16:14:14.541Z,48.60
2018-06-10T16:16:42.722Z,48.90
2018-06-10T16:19:10.368Z,48.50
2018-06-10T16:21:37.888Z,48.20
2018-06-10T16:24:05.318Z,48.50
2018-06-10T16:26:36.323Z,47.80
2018-06-10T16:29:03.827Z,47.70
2018-06-10T16:31:31.207Z,47.70
2018-06-10T16:33:58.852Z,48.30
2018-06-10T16:36:26.229Z,48.60
2018-06-10T16:38:54.068Z,48.40
2018-06-10T16:41:21.917Z,47.90
2018-06-10T16:43:50.231Z,47.40
2018-06-10T16:46:18.170Z,47.70
2018-06-10T16:48:45.579Z,48.10
2018-06-10T16:51:13.054Z,48.40
2018-06-10T16:53:40.633Z,47.60
2018-06-10T16:56:08.126Z,48.10
2018-06-10T16:58:35.711Z,48.80
2018-06-10T17:01:03.319Z,49.40
2018-06-10T17:03:30.787Z,49.80
2018-06-10T17:05:58.262Z,50.70
2018-06-10T17:08:26.163Z,51.00
2018-06-10T17:10:53.499Z,51.10
2018-06-10T17:13:21.011Z,51.50
2018-06-10T17:15:48.712Z,52.20
2018-06-10T17:18:16.235Z,52.60
2018-06-10T17:20:43.903Z,52.90
2018-06-10T17:25:40.436Z,53.20
2018-06-10T17:28:07.957Z,52.70
2018-06-10T17:30:35.406Z,53.20
2018-06-10T17:33:02.989Z,53.30
2018-06-10T17:35:30.487Z,53.00
2018-06-10T17:37:58.389Z,52.10
2018-06-10T17:40:25.815Z,51.00
2018-06-10T17:42:53.164Z,51.40
2018-06-10T17:47:47.963Z,51.40
2018-06-10T17:50:15.377Z,50.60
2018-06-10T17:52:42.789Z,50.90
2018-06-10T17:55:10.481Z,50.80
2018-06-10T17:57:38.125Z,50.90
2018-06-10T18:00:05.486Z,50.50
2018-06-10T18:02:32.810Z,50.30
2018-06-10T18:05:05.627Z,50.10
2018-06-10T18:07:34.412Z,49.90
2018-06-10T18:12:31.054Z,49.70
2018-06-10T18:15:03.212Z,49.70
2018-06-10T18:17:30.614Z,49.40
2018-06-10T18:19:58.050Z,49.80
2018-06-10T18:22:25.829Z,49.80
2018-06-10T18:24:53.820Z,49.90
2018-06-10T18:27:21.332Z,50.20
2018-06-10T18:29:51.951Z,50.80
2018-06-10T18:32:22.358Z,51.20
2018-06-10T18:34:49.948Z,52.10
2018-06-10T18:37:20.362Z,52.60
2018-06-10T18:39:50.142Z,53.20
2018-06-10T18:42:18.014Z,53.70
2018-06-10T18:44:46.718Z,54.40
2018-06-10T18:47:14.975Z,54.80
2018-06-10T18:49:42.785Z,55.40
2018-06-10T18:52:11.773Z,56.10
2018-06-10T18:54:39.329Z,56.80
2018-06-10T18:57:08.091Z,57.00
2018-06-10T18:59:35.834Z,57.50
2018-06-10T19:02:03.608Z,57.80
2018-06-10T19:04:31.858Z,58.10
2018-06-10T19:06:59.860Z,58.20
2018-06-10T19:09:27.219Z,59.30
2018-06-10T19:11:56.936Z,59.30
2018-06-10T19:14:24.750Z,59.50
2018-06-10T19:16:52.418Z,59.80
2018-06-10T19:19:20.814Z,61.20
2018-06-10T19:21:48.501Z,60.80
2018-06-10T19:24:15.953Z,61.50
2018-06-10T19:26:43.749Z,61.50
2018-06-10T19:29:11.297Z,61.60
2018-06-10T19:31:39.079Z,62.00
2018-06-10T19:34:06.617Z,62.20
2018-06-10T19:36:34.286Z,62.80
2018-06-10T19:39:04.024Z,62.80
2018-06-10T19:41:31.853Z,63.30
2018-06-10T19:43:59.921Z,63.30
2018-06-10T19:46:27.424Z,64.00
2018-06-10T19:48:54.853Z,64.10
2018-06-10T19:51:23.490Z,64.50
2018-06-10T19:53:52.613Z,64.90
2018-06-10T19:56:21.121Z,65.00
2018-06-10T19:58:48.735Z,65.10
2018-06-10T20:01:17.615Z,65.40
2018-06-10T20:03:45.349Z,66.00
2018-06-10T20:06:13.392Z,66.10
2018-06-10T20:08:41.028Z,66.50
2018-06-10T20:11:08.772Z,66.90
2018-06-10T20:13:37.548Z,67.10
2018-06-10T20:16:06.555Z,67.60
2018-06-10T20:18:34.358Z,67.60
2018-06-10T20:21:01.782Z,67.80
2018-06-10T20:25:58.337Z,67.60
2018-06-10T20:28:26.353Z,68.30
2018-06-10T20:30:55.161Z,68.40
2018-06-10T20:33:24.354Z,68.70
2018-06-10T20:35:52.114Z,69.20
2018-06-10T20:40:48.415Z,69.70
2018-06-10T20:43:17.124Z,69.90
2018-06-10T20:45:44.833Z,69.90
2018-06-10T20:48:13.318Z,69.80
2018-06-10T20:50:40.734Z,70.30
2018-06-10T20:53:08.821Z,70.50
2018-06-10T20:55:36.528Z,70.90
2018-06-10T20:58:03.993Z,70.90
2018-06-10T21:00:31.763Z,70.90
2018-06-10T21:02:59.407Z,71.20
2018-06-10T21:05:27.200Z,71.50
2018-06-10T21:07:55.066Z,71.50
2018-06-10T21:10:23.031Z,71.70
2018-06-10T21:12:50.801Z,71.90
2018-06-10T21:15:18.616Z,71.90
2018-06-10T21:17:46.355Z,72.20
2018-06-10T21:20:14.291Z,72.10
2018-06-10T21:22:41.801Z,72.30
2018-06-10T21:25:09.735Z,72.70
2018-06-10T21:27:37.694Z,73.00
2018-06-10T21:30:05.008Z,72.90
2018-06-10T21:34:59.892Z,73.40
2018-06-10T21:37:27.412Z,73.20
2018-06-10T21:39:55.051Z,73.40
2018-06-10T21:42:22.530Z,73.40
2018-06-10T21:44:52.509Z,72.80
2018-06-10T21:47:19.901Z,73.30
2018-06-10T21:49:47.549Z,73.30
2018-06-10T21:52:14.962Z,73.20
2018-06-10T21:54:43.348Z,73.90
2018-06-10T21:57:11.032Z,73.40
2018-06-10T21:59:38.608Z,74.00
2018-06-10T22:02:06.052Z,73.70
2018-06-10T22:04:33.712Z,73.90
2018-06-10T22:07:01.114Z,73.90
2018-06-10T22:09:28.697Z,73.70
2018-06-10T22:11:56.407Z,74.00
2018-06-10T22:14:23.817Z,73.70
2018-06-10T22:16:51.120Z,73.40
2018-06-10T22:19:18.648Z,73.50
2018-06-10T22:21:46.213Z,73.40
2018-06-10T22:24:13.937Z,73.50
2018-06-10T22:26:41.455Z,73.50
2018-06-10T22:29:08.858Z,73.90
2018-06-10T22:31:36.351Z,74.00
2018-06-10T22:34:07.132Z,74.00
2018-06-10T22:36:35.902Z,74.40
2018-06-10T22:39:06.287Z,75.10
2018-06-10T22:41:36.689Z,75.30
2018-06-10T22:44:04.052Z,75.50
2018-06-10T22:46:31.611Z,76.20
2018-06-10T22:49:01.375Z,76.30
2018-06-10T22:51:29.564Z,76.50
2018-06-10T22:54:10.586Z,76.40
2018-06-10T22:56:41.962Z,77.10
2018-06-10T22:59:13.125Z,76.70
2018-06-10T23:01:44.577Z,76.10
2018-06-10T23:04:11.988Z,75.90
2018-06-10T23:06:39.425Z,75.70
2018-06-10T23:09:38.267Z,76.40
2018-06-10T23:12:05.677Z,75.60
2018-06-10T23:14:33.011Z,75.40
2018-06-10T23:17:00.743Z,75.70
2018-06-10T23:19:28.245Z,76.10
2018-06-10T23:21:55.636Z,76.40
2018-06-10T23:24:23.195Z,76.40
2018-06-10T23:26:50.802Z,76.20
2018-06-10T23:29:18.187Z,76.70
2018-06-10T23:31:45.563Z,76.70
2018-06-10T23:34:13.076Z,77.00
2018-06-10T23:36:40.359Z,76.50
2018-06-10T23:39:08.043Z,76.50
2018-06-10T23:41:35.474Z,76.20
2018-06-10T23:44:02.824Z,76.50
2018-06-10T23:46:30.409Z,77.20
2018-06-10T23:48:57.975Z,77.40
2018-06-10T23:51:25.475Z,77.00
2018-06-10T23:53:52.766Z,77.90
2018-06-10T23:56:20.159Z,77.90
2018-06-10T23:58:47.682Z,77.90
